createdAt,value
2019-04-16T08:38:21.131Z,12.90
2019-04-16T08:40:48.502Z,12.70
2019-04-16T08:43:15.793Z,12.60
2019-04-16T08:45:43.186Z,13.00
2019-04-16T08:48:10.500Z,12.97
2019-04-16T08:50:37.787Z,13.23
2019-04-16T08:53:05.171Z,12.50
2019-04-16T08:55:32.459Z,12.83
2019-04-16T08:57:59.884Z,12.90
2019-04-16T09:00:27.182Z,12.33
2019-04-16T09:02:57.606Z,11.63
2019-04-16T09:05:23.514Z,11.90
2019-04-16T09:07:51.622Z,12.20
2019-04-16T09:10:23.718Z,12.77
2019-04-16T09:13:02.575Z,12.80
2019-04-16T09:15:20.588Z,12.80
2019-04-16T09:17:49.552Z,12.57
2019-04-16T09:20:18.582Z,13.70
2019-04-16T09:22:49.240Z,13.27
2019-04-16T09:25:32.951Z,12.33
2019-04-16T09:28:23.836Z,12.87
2019-04-16T09:30:39.327Z,13.10
2019-04-16T09:33:08.488Z,12.07
2019-04-16T09:35:37.526Z,13.20
2019-04-16T09:38:22.820Z,13.40
2019-04-16T09:40:51.816Z,14.00
2019-04-16T09:43:32.708Z,13.40
2019-04-16T09:46:10.136Z,13.40
2019-04-16T09:48:34.080Z,13.90
2019-04-16T09:50:58.310Z,13.70
2019-04-16T09:53:33.459Z,14.00
2019-04-16T09:55:54.636Z,14.40
2019-04-16T09:58:23.796Z,13.77
2019-04-16T10:00:52.890Z,14.37
2019-04-16T10:03:33.814Z,14.87
2019-04-16T10:06:01.338Z,14.00
2019-04-16T10:08:29.489Z,14.10
2019-04-16T10:10:58.087Z,14.40
2019-04-16T10:13:32.753Z,14.23
2019-04-16T10:15:55.726Z,13.90
2019-04-16T10:18:23.207Z,15.33
2019-04-16T10:20:50.554Z,14.30
2019-04-16T10:23:25.313Z,14.67
2019-04-16T10:25:52.730Z,13.77
2019-04-16T10:28:22.824Z,14.23
2019-04-16T10:30:50.935Z,14.67
2019-04-16T10:33:18.375Z,14.07
2019-04-16T10:35:45.754Z,14.90
2019-04-16T10:38:26.946Z,14.37
2019-04-16T10:40:58.727Z,15.00
2019-04-16T10:43:44.815Z,16.07
2019-04-16T10:46:29.190Z,15.77
2019-04-16T10:49:16.220Z,13.57
2019-04-16T10:52:00.289Z,14.77
2019-04-16T10:54:33.782Z,15.10
2019-04-16T10:57:05.456Z,15.10
2019-04-16T10:59:43.294Z,15.10
2019-04-16T11:02:28.987Z,15.93
2019-04-16T11:04:57.987Z,15.30
2019-04-16T11:07:26.923Z,15.50
2019-04-16T11:09:54.246Z,14.50
2019-04-16T11:12:21.578Z,15.53
2019-04-16T11:14:48.937Z,15.57
2019-04-16T11:17:18.126Z,15.00
2019-04-16T11:19:45.498Z,15.80
2019-04-16T11:22:12.954Z,15.93
2019-04-16T11:24:40.268Z,14.50
2019-04-16T11:27:07.657Z,15.60
2019-04-16T11:29:38.387Z,15.87
2019-04-16T11:32:05.157Z,15.23
2019-04-16T11:34:32.491Z,15.60
2019-04-16T11:37:00.032Z,14.90
2019-04-16T11:39:28.048Z,15.07
2019-04-16T11:41:55.540Z,15.87
2019-04-16T11:44:22.928Z,16.03
2019-04-16T11:46:50.331Z,13.45
2019-04-16T11:49:17.738Z,16.50
2019-04-16T11:51:45.131Z,15.10
2019-04-16T11:54:17.593Z,15.50
2019-04-16T11:56:45.125Z,14.63
2019-04-16T11:59:12.646Z,15.75
2019-04-16T12:01:50.505Z,15.60
2019-04-16T12:04:25.123Z,15.72
2019-04-16T12:07:00.222Z,15.30
2019-04-16T12:09:32.149Z,16.07
2019-04-16T12:12:01.213Z,16.35
2019-04-16T12:14:34.518Z,18.00
2019-04-16T12:17:00.945Z,17.50
2019-04-16T12:19:32.715Z,17.15
2019-04-16T12:22:04.767Z,16.65
2019-04-16T12:24:33.794Z,16.42
2019-04-16T12:27:08.858Z,16.23
2019-04-16T12:29:53.697Z,17.77
2019-04-16T12:32:26.556Z,17.57
2019-04-16T12:35:02.570Z,17.57
2019-04-16T12:37:31.572Z,16.77
2019-04-16T12:40:09.612Z,18.92
2019-04-16T12:42:42.308Z,17.30
2019-04-16T12:45:18.626Z,16.42
2019-04-16T12:47:51.038Z,16.15
2019-04-16T12:50:29.237Z,18.12
2019-04-16T12:52:58.270Z,17.25
2019-04-16T12:55:43.308Z,17.20
2019-04-16T12:58:12.293Z,17.60
2019-04-16T13:00:41.230Z,15.35
2019-04-16T13:03:28.389Z,17.20
2019-04-16T13:06:09.300Z,17.00
2019-04-16T13:08:41.386Z,17.17
2019-04-16T13:11:10.363Z,17.98
2019-04-16T13:13:55.488Z,17.73
2019-04-16T13:16:24.500Z,17.60
2019-04-16T13:19:09.046Z,17.10
2019-04-16T13:21:37.995Z,16.15
2019-04-16T13:24:07.108Z,18.55
2019-04-16T13:26:36.129Z,17.35
2019-04-16T13:29:06.095Z,18.23
2019-04-16T13:31:36.459Z,18.73
2019-04-16T13:34:02.826Z,16.93
2019-04-16T13:36:30.156Z,18.50
2019-04-16T13:39:02.047Z,18.00
2019-04-16T13:41:31.213Z,17.75
2019-04-16T13:44:12.368Z,18.75
2019-04-16T13:46:39.872Z,18.87
2019-04-16T13:49:31.467Z,18.75
2019-04-16T13:51:57.518Z,19.37
2019-04-16T13:54:38.210Z,18.45
2019-04-16T13:57:12.904Z,18.27
2019-04-16T14:00:02.967Z,16.60
2019-04-16T14:02:37.924Z,17.95
2019-04-16T14:05:05.763Z,18.80
2019-04-16T14:07:33.150Z,18.67
2019-04-16T14:10:00.568Z,17.73
2019-04-16T14:12:41.280Z,20.27
2019-04-16T14:14:57.146Z,19.35
2019-04-16T14:17:26.269Z,18.07
2019-04-16T14:19:53.576Z,19.70
2019-04-16T14:22:21.892Z,19.02
2019-04-16T14:24:49.887Z,18.30
2019-04-16T14:27:17.271Z,17.67
2019-04-16T14:29:46.655Z,19.40
2019-04-16T14:32:14.122Z,19.35
2019-04-16T14:34:45.663Z,17.55
2019-04-16T14:37:13.029Z,17.02
2019-04-16T14:39:42.046Z,18.00
2019-04-16T14:42:09.469Z,19.73
2019-04-16T14:44:44.423Z,17.80
2019-04-16T14:47:12.141Z,19.80
2019-04-16T14:49:39.529Z,19.60
2019-04-16T14:52:07.970Z,18.42
2019-04-16T14:54:39.712Z,19.07
2019-04-16T14:57:10.979Z,20.65
2019-04-16T14:59:39.807Z,21.10
2019-04-16T15:02:08.802Z,18.37
2019-04-16T15:04:43.189Z,19.25
2019-04-16T15:07:11.427Z,20.45
2019-04-16T15:09:44.149Z,20.43
2019-04-16T15:12:32.030Z,18.82
2019-04-16T15:15:02.816Z,21.60
2019-04-16T15:17:48.741Z,19.17
2019-04-16T15:20:23.353Z,21.30
2019-04-16T15:23:08.397Z,18.70
2019-04-16T15:25:37.401Z,19.00
2019-04-16T15:28:08.987Z,20.57
2019-04-16T15:30:43.921Z,21.37
2019-04-16T15:33:21.893Z,20.52
2019-04-16T15:36:02.633Z,19.90
2019-04-16T15:38:35.009Z,19.23
2019-04-16T15:41:13.365Z,19.70
2019-04-16T15:43:59.995Z,19.20
2019-04-16T15:46:34.936Z,18.87
2019-04-16T15:49:08.392Z,19.77
2019-04-16T15:51:44.060Z,21.77
2019-04-16T15:54:26.215Z,19.30
2019-04-16T15:57:11.245Z,19.85
2019-04-16T15:59:55.489Z,19.50
2019-04-16T16:02:27.350Z,20.70
2019-04-16T16:04:56.373Z,19.30
2019-04-16T16:07:24.309Z,21.57
2019-04-16T16:10:00.081Z,20.30
2019-04-16T16:12:28.283Z,21.33
2019-04-16T16:14:55.665Z,19.37
2019-04-16T16:17:23.401Z,18.77
2019-04-16T16:19:50.835Z,17.87
2019-04-16T16:22:18.203Z,20.08
2019-04-16T16:24:45.521Z,19.23
2019-04-16T16:27:12.867Z,19.60
2019-04-16T16:29:41.355Z,20.40
2019-04-16T16:32:08.705Z,18.42
2019-04-16T16:34:36.065Z,18.75
2019-04-16T16:37:03.447Z,19.90
2019-04-16T16:39:30.765Z,19.10
2019-04-16T16:41:59.202Z,19.40
2019-04-16T16:44:27.123Z,18.90
2019-04-16T16:46:58.035Z,17.70
2019-04-16T16:49:25.217Z,19.60
2019-04-16T16:51:54.234Z,20.70
2019-04-16T16:54:23.255Z,19.30
2019-04-16T16:57:03.489Z,19.98
2019-04-16T16:59:47.422Z,18.37
2019-04-16T17:02:19.164Z,18.62
2019-04-16T17:04:48.088Z,19.15
2019-04-16T17:07:17.710Z,19.45
2019-04-16T17:09:44.559Z,18.25
2019-04-16T17:12:11.858Z,18.87
2019-04-16T17:14:39.244Z,18.00
2019-04-16T17:17:13.846Z,17.60
2019-04-16T17:19:35.760Z,18.85
2019-04-16T17:22:03.168Z,20.72
2019-04-16T17:24:30.532Z,19.98
2019-04-16T17:26:57.914Z,18.85
2019-04-16T17:29:26.262Z,19.82
2019-04-16T17:31:53.913Z,19.77
2019-04-16T17:34:21.348Z,20.55
2019-04-16T17:36:48.878Z,17.15
2019-04-16T17:39:17.831Z,17.92
2019-04-16T17:41:46.833Z,18.50
2019-04-16T17:44:27.294Z,18.67
2019-04-16T17:46:55.351Z,20.05
2019-04-16T17:49:36.278Z,18.30
2019-04-16T17:52:11.006Z,18.65
2019-04-16T17:54:42.805Z,19.57
2019-04-16T17:57:17.901Z,19.12
2019-04-16T18:00:04.727Z,18.23
2019-04-16T18:02:42.144Z,18.23
2019-04-16T18:05:13.110Z,18.40
2019-04-16T18:07:57.168Z,17.92
2019-04-16T18:10:42.309Z,17.45
2019-04-16T18:13:11.328Z,18.07
2019-04-16T18:15:51.923Z,18.20
2019-04-16T18:18:21.067Z,18.00
2019-04-16T18:21:05.010Z,17.20
2019-04-16T18:23:49.736Z,18.27
2019-04-16T18:26:21.844Z,16.62
2019-04-16T18:28:53.648Z,17.00
2019-04-16T18:31:23.462Z,17.32
2019-04-16T18:34:10.751Z,18.35
2019-04-16T18:36:55.967Z,16.75
2019-04-16T18:39:41.092Z,18.23
2019-04-16T18:42:12.960Z,17.07
2019-04-16T18:44:47.875Z,16.55
2019-04-16T18:47:32.067Z,17.87
2019-04-16T18:50:06.790Z,17.12
2019-04-16T18:52:36.662Z,17.35
2019-04-16T18:55:03.350Z,16.37
2019-04-16T18:57:30.689Z,18.05
2019-04-16T18:59:59.765Z,15.45
2019-04-16T19:02:28.927Z,17.20
2019-04-16T19:04:56.407Z,17.48
2019-04-16T19:07:23.763Z,17.73
2019-04-16T19:09:51.190Z,16.67
2019-04-16T19:12:18.550Z,16.20
2019-04-16T19:14:46.137Z,16.93
2019-04-16T19:17:16.716Z,17.90
2019-04-16T19:19:45.506Z,16.52
2019-04-16T19:22:12.173Z,16.55
2019-04-16T19:24:39.572Z,17.05
2019-04-16T19:27:06.967Z,16.48
2019-04-16T19:29:34.363Z,15.60
2019-04-16T19:32:01.667Z,18.32
2019-04-16T19:34:29.229Z,15.85
2019-04-16T19:36:59.673Z,17.27
2019-04-16T19:39:25.719Z,17.12
2019-04-16T19:41:57.164Z,17.80
2019-04-16T19:44:22.107Z,16.55
2019-04-16T19:46:52.498Z,19.17
2019-04-16T19:49:18.485Z,18.67
2019-04-16T19:51:45.830Z,19.05
2019-04-16T19:54:13.170Z,18.40
2019-04-16T19:56:40.551Z,17.73
2019-04-16T19:59:07.871Z,18.35
2019-04-16T20:01:35.216Z,17.75
2019-04-16T20:04:02.623Z,18.75
2019-04-16T20:06:30.041Z,17.57
2019-04-16T20:08:57.487Z,16.62
2019-04-16T20:11:24.897Z,17.30
2019-04-16T20:13:52.241Z,18.20
2019-04-16T20:16:19.866Z,17.85
2019-04-16T20:18:51.064Z,17.35
2019-04-16T20:21:16.269Z,16.77
2019-04-16T20:23:43.642Z,16.82
2019-04-16T20:26:11.026Z,16.85
2019-04-16T20:28:39.353Z,17.77
2019-04-16T20:34:27.421Z,15.98
2019-04-16T20:36:55.781Z,16.37
2019-04-16T20:39:23.785Z,17.15
2019-04-16T20:42:04.117Z,15.98
2019-04-16T20:44:31.461Z,16.57
2019-04-16T20:47:03.679Z,15.38
2019-04-16T20:49:28.859Z,15.70
2019-04-16T20:52:00.133Z,15.68
2019-04-16T20:54:25.261Z,16.48
2019-04-16T20:56:53.061Z,15.88
2019-04-16T20:59:21.305Z,14.70
2019-04-16T21:01:48.674Z,15.63
2019-04-16T21:04:16.107Z,14.45
2019-04-16T21:06:43.429Z,16.67
2019-04-16T21:09:10.747Z,15.90
2019-04-16T21:11:40.981Z,15.50
2019-04-16T21:14:07.101Z,14.58
2019-04-16T21:16:34.643Z,14.98
2019-04-16T21:19:02.157Z,14.18
2019-04-16T21:21:29.543Z,14.93
2019-04-16T21:23:56.865Z,16.48
2019-04-16T21:26:24.349Z,16.12
2019-04-16T21:28:54.920Z,15.20
2019-04-16T21:31:29.939Z,14.20
2019-04-16T21:34:02.010Z,15.63
2019-04-16T21:36:39.985Z,15.93
2019-04-16T21:39:09.085Z,15.83
2019-04-16T21:41:36.405Z,14.20
2019-04-16T21:44:04.155Z,15.23
2019-04-16T21:46:31.530Z,14.68
2019-04-16T21:49:00.870Z,15.15
2019-04-16T21:51:27.935Z,15.80
2019-04-16T21:53:57.346Z,14.25
2019-04-16T21:56:24.605Z,15.48
2019-04-16T21:58:51.983Z,13.80
2019-04-16T22:01:21.005Z,14.75
2019-04-16T22:03:53.217Z,13.75
2019-04-16T22:06:21.093Z,14.40
2019-04-16T22:08:48.622Z,13.95
2019-04-16T22:11:15.925Z,14.65
2019-04-16T22:13:43.267Z,15.50
2019-04-16T22:16:10.664Z,15.08
2019-04-16T22:18:41.616Z,14.20
2019-04-16T22:21:10.985Z,14.75
2019-04-16T22:23:36.079Z,13.58
2019-04-16T22:26:03.496Z,13.68
2019-04-16T22:28:30.888Z,13.03
2019-04-16T22:30:58.248Z,12.93
2019-04-16T22:33:25.692Z,14.85
2019-04-16T22:35:52.992Z,14.00
2019-04-16T22:38:20.324Z,13.95
2019-04-16T22:40:56.552Z,13.20
2019-04-16T22:43:34.481Z,13.48
2019-04-16T22:46:03.590Z,14.60
2019-04-16T22:48:30.924Z,14.23
2019-04-16T22:50:58.285Z,13.83
2019-04-16T22:53:25.604Z,13.00
2019-04-16T22:55:56.387Z,14.43
2019-04-16T22:58:26.303Z,12.58
2019-04-16T23:00:55.237Z,14.30
2019-04-16T23:03:22.541Z,13.95
2019-04-16T23:05:49.894Z,13.03
2019-04-16T23:08:17.190Z,13.93
2019-04-16T23:10:44.496Z,13.18
2019-04-16T23:13:11.884Z,13.20
2019-04-16T23:15:39.362Z,14.80
2019-04-16T23:18:06.666Z,13.70
2019-04-16T23:20:36.996Z,13.00
2019-04-16T23:23:03.120Z,14.03
2019-04-16T23:25:30.472Z,13.58
2019-04-16T23:27:57.829Z,13.10
2019-04-16T23:30:25.158Z,12.60
2019-04-16T23:32:52.462Z,12.82
2019-04-16T23:35:19.764Z,12.07
2019-04-16T23:37:47.055Z,12.10
2019-04-16T23:40:14.345Z,12.28
2019-04-16T23:42:43.286Z,14.33
2019-04-16T23:45:12.199Z,13.70
2019-04-16T23:47:46.866Z,14.98
2019-04-16T23:50:15.804Z,13.90
2019-04-16T23:52:47.645Z,12.70
2019-04-16T23:55:17.715Z,13.13
2019-04-16T23:57:58.650Z,13.55
